Time;durP1;ratioP1;P1;durP2;ratioP2;P2;SDS_P1;SDS_P2;PMS_P1;PMS_P2;Temp;Humidity;BMP_temperature;BMP_pressure;BME280_temperature;BME280_humidity;BME280_pressure;Samples;Min_cycle;Max_cycle;Signal;HPM_P1;HPM_P2
2023/08/11 00:00:21;;;;;;;;;;;;;;;;;;5111927;28;20010;-70
2023/08/11 00:03:38;;;;;;;;;;;;;;;;;;5091069;27;19919;-69
2023/08/11 00:08:32;;;;;;;;;;;;;;;;;;5111757;27;19912;-69
2023/08/11 00:10:58;;;;;;;;;;;;;;;;;;5111429;28;20459;-69
2023/08/11 00:14:58;;;;;;;;;;;;;;;;;;5111714;27;19916;-69
2023/08/11 00:17:24;;;;;;;;;;;;;;;;;;5110038;28;20006;-69
2023/08/11 00:21:59;;;;;;;;;;;;;;;;;;5091424;27;19917;-69
2023/08/11 00:25:25;;;;;;;;;;;;;;;;;;5112060;27;19916;-69
2023/08/11 00:29:41;;;;;;;;;;;;;;;;;;5132222;27;20092;-69
2023/08/11 00:32:55;;;;;;;;;;;;;;;;;;5111807;27;19916;-71
2023/08/11 00:36:57;;;;;;;;;;;;;;;;;;5112026;27;19919;-69
2023/08/11 00:39:46;;;;;;;;;;;;;;;;;;5092280;27;19923;-69
2023/08/11 00:42:54;;;;;;;;;;;;;;;;;;5071349;28;20404;-69
2023/08/11 00:45:20;;;;;;;;;;;;;;;;;;5070810;28;19912;-69
2023/08/11 00:47:45;;;;;;;;;;;;;;;;;;5069900;28;20365;-69
2023/08/11 00:52:09;;;;;;;;;;;;;;;;;;5091091;27;19916;-70
2023/08/11 00:57:10;;;;;;;;;;;;;;;;;;5112265;27;19916;-69
2023/08/11 01:01:31;;;;;;;;;;;;;;;;;;5112328;27;20406;-69
2023/08/11 01:03:57;;;;;;;;;;;;;;;;;;5111706;28;20006;-69
2023/08/11 01:07:32;;;;;;;;;;;;;;;;;;5112318;27;20299;-70
2023/08/11 01:09:58;;;;;;;;;;;;;;;;;;5111781;28;20007;-71
2023/08/11 01:12:25;;;;;;;;;;;;;;;;;;5111708;28;20329;-71
2023/08/11 01:14:52;;;;;;;;;;;;;;;;;;5111695;28;19916;-71
2023/08/11 01:17:18;;;;;;;;;;;;;;;;;;5111602;28;20365;-69
2023/08/11 01:19:44;;;;;;;;;;;;;;;;;;5111201;28;19915;-70
2023/08/11 01:23:40;;;;;;;;;;;;;;;;;;5111987;27;19923;-71
2023/08/11 01:26:06;;;;;;;;;;;;;;;;;;5111355;28;19918;-69
2023/08/11 01:30:10;;;;;;;;;;;;;;;;;;5091300;27;19912;-70
2023/08/11 01:32:36;;;;;;;;;;;;;;;;;;5091329;28;19916;-70
2023/08/11 01:37:00;;;;;;;;;;;;;;;;;;5112593;27;19918;-69
2023/08/11 01:40:22;;;;;;;;;;;;;;;;;;5091230;27;19931;-70
2023/08/11 01:44:29;;;;;;;;;;;;;;;;;;5091748;28;19916;-70
2023/08/11 01:48:13;;;;;;;;;;;;;;;;;;5111471;27;19923;-70
2023/08/11 01:55:13;;;;;;;;;;;;;;;;;;5091566;27;19916;-70
2023/08/11 02:00:20;;;;;;;;;;;;;;;;;;5112252;27;19916;-69
2023/08/11 02:02:47;;;;;;;;;;;;;;;;;;5111452;28;19916;-71
2023/08/11 02:06:03;;;;;;;;;;;;;;;;;;5153475;27;20014;-71
2023/08/11 02:10:00;;;;;;;;;;;;;;;;;;5091263;27;19912;-71
2023/08/11 02:12:26;;;;;;;;;;;;;;;;;;5091405;28;20003;-70
2023/08/11 02:14:52;;;;;;;;;;;;;;;;;;5091511;28;20262;-70
2023/08/11 02:17:18;;;;;;;;;;;;;;;;;;5091006;28;19939;-70
2023/08/11 02:20:26;;;;;;;;;;;;;;;;;;5091744;27;20295;-71
2023/08/11 02:22:52;;;;;;;;;;;;;;;;;;5090991;28;20003;-70
2023/08/11 02:29:32;;;;;;;;;;;;;;;;;;5111552;27;19912;-69
2023/08/11 02:32:27;;;;;;;;;;;;;;;;;;5091565;28;19917;-69
2023/08/11 02:35:40;;;;;;;;;;;;;;;;;;5111954;27;19934;-69
2023/08/11 02:38:06;;;;;;;;;;;;;;;;;;5111496;28;19999;-69
2023/08/11 02:41:33;;;;;;;;;;;;;;;;;;5091710;28;19923;-69
2023/08/11 02:45:20;;;;;;;;;;;;;;;;;;5111390;27;19912;-69
2023/08/11 02:47:46;;;;;;;;;;;;;;;;;;5110463;28;19912;-69
2023/08/11 02:50:13;;;;;;;;;;;;;;;;;;5111759;28;19915;-69
2023/08/11 02:52:39;;;;;;;;;;;;;;;;;;5111244;28;20319;-69
2023/08/11 02:55:40;;;;;;;;;;;;;;;;;;5112490;27;19916;-69
2023/08/11 02:58:06;;;;;;;;;;;;;;;;;;5111397;28;20372;-69
2023/08/11 03:00:33;;;;;;;;;;;;;;;;;;5111719;28;19915;-71
2023/08/11 03:03:01;;;;;;;;;;;;;;;;;;5111823;28;19912;-71
2023/08/11 03:05:27;;;;;;;;;;;;;;;;;;5111227;28;19908;-71
2023/08/11 03:07:53;;;;;;;;;;;;;;;;;;5111575;28;20413;-71
2023/08/11 03:10:18;;;;;;;;;;;;;;;;;;5111560;28;20404;-70
2023/08/11 03:15:19;;;;;;;;;;;;;;;;;;5091462;27;20406;-69
2023/08/11 03:19:03;;;;;;;;;;;;;;;;;;5173881;27;19918;-69
2023/08/11 03:23:35;;;;;;;;;;;;;;;;;;5132397;27;20291;-69
2023/08/11 03:29:22;;;;;;;;;;;;;;;;;;5071547;28;20391;-69
2023/08/11 03:32:32;;;;;;;;;;;;;;;;;;5112611;27;19916;-69
2023/08/11 03:34:58;;;;;;;;;;;;;;;;;;5111786;28;19912;-71
2023/08/11 03:37:24;;;;;;;;;;;;;;;;;;5111705;28;19912;-69
2023/08/11 03:42:04;;;;;;;;;;;;;;;;;;5111876;27;19916;-69
2023/08/11 03:47:03;;;;;;;;;;;;;;;;;;5091566;27;19916;-69
2023/08/11 03:52:24;;;;;;;;;;;;;;;;;;5112534;27;19923;-69
2023/08/11 03:54:50;;;;;;;;;;;;;;;;;;5111381;28;19999;-69
2023/08/11 03:57:16;;;;;;;;;;;;;;;;;;5111766;28;19908;-69
2023/08/11 03:59:42;;;;;;;;;;;;;;;;;;5110332;28;20003;-69
2023/08/11 04:02:08;;;;;;;;;;;;;;;;;;5115776;28;19908;-69
2023/08/11 04:04:34;;;;;;;;;;;;;;;;;;5111585;28;19912;-69
2023/08/11 04:07:00;;;;;;;;;;;;;;;;;;5111583;28;19953;-69
2023/08/11 04:10:24;;;;;;;;;;;;;;;;;;5091722;27;19917;-69
2023/08/11 04:17:37;;;;;;;;;;;;;;;;;;5111996;27;19916;-69
2023/08/11 04:22:46;;;;;;;;;;;;;;;;;;5071275;28;19925;-69
2023/08/11 04:25:12;;;;;;;;;;;;;;;;;;5071512;28;20011;-69
2023/08/11 04:27:39;;;;;;;;;;;;;;;;;;5071151;28;19908;-69
2023/08/11 04:30:05;;;;;;;;;;;;;;;;;;5070878;28;19908;-70
2023/08/11 04:32:31;;;;;;;;;;;;;;;;;;5069761;28;19931;-70
2023/08/11 04:34:57;;;;;;;;;;;;;;;;;;5071238;28;19966;-69
2023/08/11 04:39:16;;;;;;;;;;;;;;;;;;5111931;27;19915;-69
2023/08/11 04:41:42;;;;;;;;;;;;;;;;;;5111803;28;20344;-69
2023/08/11 04:45:49;;;;;;;;;;;;;;;;;;5112456;27;19922;-71
2023/08/11 04:48:15;;;;;;;;;;;;;;;;;;5111887;28;19966;-71
2023/08/11 04:51:34;;;;;;;;;;;;;;;;;;5111483;27;19922;-69
2023/08/11 04:54:27;;;;;;;;;;;;;;;;;;5111995;27;19916;-70
2023/08/11 04:58:58;;;;;;;;;;;;;;;;;;5111475;27;19916;-69
2023/08/11 05:04:57;;;;;;;;;;;;;;;;;;5091257;27;19916;-69
2023/08/11 05:07:23;;;;;;;;;;;;;;;;;;5091701;28;20007;-69
2023/08/11 05:13:12;;;;;;;;;;;;;;;;;;5051010;28;19924;-69
2023/08/11 05:15:38;;;;;;;;;;;;;;;;;;5051167;28;19919;-69
2023/08/11 05:20:14;;;;;;;;;;;;;;;;;;5070806;28;19917;-69
2023/08/11 05:22:52;;;;;;;;;;;;;;;;;;5112001;27;19916;-69
2023/08/11 05:26:13;;;;;;;;;;;;;;;;;;5111710;27;19916;-69
2023/08/11 05:29:13;;;;;;;;;;;;;;;;;;5132522;27;19911;-69
2023/08/11 05:31:39;;;;;;;;;;;;;;;;;;5132172;28;20284;-69
2023/08/11 05:35:36;;;;;;;;;;;;;;;;;;5092270;27;19939;-71
2023/08/11 05:38:35;;;;;;;;;;;;;;;;;;5091683;28;19916;-69
2023/08/11 05:41:01;;;;;;;;;;;;;;;;;;5090902;28;19948;-69
2023/08/11 05:43:27;;;;;;;;;;;;;;;;;;5091621;28;19915;-70
2023/08/11 05:50:13;;;;;;;;;;;;;;;;;;5112212;27;20299;-70
2023/08/11 05:54:37;;;;;;;;;;;;;;;;;;5111692;27;20392;-69
2023/08/11 06:03:29;;;;;;;;;;;;;;;;;;5091928;27;19917;-70
2023/08/11 06:05:55;;;;;;;;;;;;;;;;;;5091514;28;19913;-70
2023/08/11 06:16:12;;;;;;;;;;;;;;;;;;5091421;27;19912;-70
2023/08/11 06:23:07;;;;;;;;;;;;;;;;;;5088468;27;19924;-71
2023/08/11 06:25:33;;;;;;;;;;;;;;;;;;5091549;28;20296;-70
2023/08/11 06:27:58;;;;;;;;;;;;;;;;;;5091491;28;19969;-71
2023/08/11 06:30:27;;;;;;;;;;;;;;;;;;5089793;28;19913;-70
2023/08/11 06:32:53;;;;;;;;;;;;;;;;;;5090003;28;19958;-70
2023/08/11 06:35:19;;;;;;;;;;;;;;;;;;5090376;28;19912;-71
2023/08/11 06:41:59;;;;;;;;;;;;;;;;;;5089486;27;19938;-70
2023/08/11 06:44:25;;;;;;;;;;;;;;;;;;5089173;28;20384;-70
2023/08/11 06:51:58;;;;;;;;;;;;;;;;;;5109701;27;20384;-70
2023/08/11 06:55:50;;;;;;;;;;;;;;;;;;5131404;27;19916;-69
2023/08/11 06:59:28;;;;;;;;;;;;;;;;;;5090862;27;19923;-70
2023/08/11 07:06:34;;;;;;;;;;;;;;;;;;5112732;27;19912;-70
2023/08/11 07:11:09;;;;;;;;;;;;;;;;;;5091808;27;19912;-70
2023/08/11 07:13:35;;;;;;;;;;;;;;;;;;5089261;28;20400;-69
2023/08/11 07:16:01;;;;;;;;;;;;;;;;;;5090909;28;19920;-68
2023/08/11 07:18:27;;;;;;;;;;;;;;;;;;5089707;28;19946;-71
2023/08/11 07:23:29;;;;;;;;;;;;;;;;;;5091638;27;19920;-69
2023/08/11 07:25:55;;;;;;;;;;;;;;;;;;5090552;28;20007;-69
2023/08/11 07:28:21;;;;;;;;;;;;;;;;;;5091405;28;19908;-69
2023/08/11 07:30:47;;;;;;;;;;;;;;;;;;5091273;28;19961;-69
2023/08/11 07:33:14;;;;;;;;;;;;;;;;;;5090792;28;19916;-68
2023/08/11 07:35:40;;;;;;;;;;;;;;;;;;5091361;28;19958;-69
2023/08/11 07:40:29;;;;;;;;;;;;;;;;;;5091114;27;19917;-67
2023/08/11 07:44:31;;;;;;;;;;;;;;;;;;5152328;27;20408;-69
2023/08/11 07:48:34;;;;;;;;;;;;;;;;;;5126162;27;19922;-70
2023/08/11 07:51:00;;;;;;;;;;;;;;;;;;5120978;28;19911;-71
2023/08/11 07:56:11;;;;;;;;;;;;;;;;;;5089652;28;20410;-70
2023/08/11 07:58:37;;;;;;;;;;;;;;;;;;5091319;28;19950;-70
2023/08/11 08:01:02;;;;;;;;;;;;;;;;;;5090771;28;19909;-70
2023/08/11 08:03:28;;;;;;;;;;;;;;;;;;5089881;28;19957;-69
2023/08/11 08:05:54;;;;;;;;;;;;;;;;;;5091162;28;19915;-68
2023/08/11 08:08:20;;;;;;;;;;;;;;;;;;5072145;28;20381;-68
2023/08/11 08:11:18;;;;;;;;;;;;;;;;;;5132179;27;19922;-70
2023/08/11 08:13:44;;;;;;;;;;;;;;;;;;5132224;28;19965;-69
2023/08/11 08:16:10;;;;;;;;;;;;;;;;;;5131712;28;19908;-69
2023/08/11 08:19:20;;;;;;;;;;;;;;;;;;5111407;27;20407;-68
2023/08/11 08:21:46;;;;;;;;;;;;;;;;;;5111320;28;20003;-68
2023/08/11 08:27:28;;;;;;;;;;;;;;;;;;5111666;27;19916;-70
2023/08/11 08:29:54;;;;;;;;;;;;;;;;;;5111294;28;19985;-70
2023/08/11 08:32:20;;;;;;;;;;;;;;;;;;5111710;28;19912;-70
2023/08/11 08:36:16;;;;;;;;;;;;;;;;;;5111624;27;19912;-69
2023/08/11 08:38:42;;;;;;;;;;;;;;;;;;5111691;28;20023;-68
2023/08/11 08:43:11;;;;;;;;;;;;;;;;;;5091021;27;19916;-70
2023/08/11 08:45:38;;;;;;;;;;;;;;;;;;5091552;28;20460;-71
2023/08/11 08:48:06;;;;;;;;;;;;;;;;;;5089992;28;19936;-70
2023/08/11 08:50:32;;;;;;;;;;;;;;;;;;5090914;28;20272;-69
2023/08/11 08:53:01;;;;;;;;;;;;;;;;;;5091341;28;19913;-68
2023/08/11 08:55:27;;;;;;;;;;;;;;;;;;5089855;28;19963;-68
2023/08/11 08:57:52;;;;;;;;;;;;;;;;;;5090791;28;19909;-72
2023/08/11 09:00:18;;;;;;;;;;;;;;;;;;5091428;28;19909;-72
2023/08/11 09:02:44;;;;;;;;;;;;;;;;;;5096946;28;19920;-70
2023/08/11 09:05:11;;;;;;;;;;;;;;;;;;5103966;28;19999;-70
2023/08/11 09:07:38;;;;;;;;;;;;;;;;;;5111238;28;19923;-71
2023/08/11 09:10:04;;;;;;;;;;;;;;;;;;5095839;28;19908;-72
2023/08/11 09:13:51;;;;;;;;;;;;;;;;;;5091555;27;20291;-70
2023/08/11 09:16:17;;;;;;;;;;;;;;;;;;5090863;28;20399;-70
2023/08/11 09:18:42;;;;;;;;;;;;;;;;;;5090764;28;19913;-72
2023/08/11 09:21:08;;;;;;;;;;;;;;;;;;5091009;28;19963;-70
2023/08/11 09:23:35;;;;;;;;;;;;;;;;;;5093067;28;19912;-72
2023/08/11 09:26:01;;;;;;;;;;;;;;;;;;5096594;28;19916;-69
2023/08/11 09:28:27;;;;;;;;;;;;;;;;;;5089576;28;19916;-71
2023/08/11 09:32:26;;;;;;;;;;;;;;;;;;5111082;27;20402;-70
2023/08/11 09:34:52;;;;;;;;;;;;;;;;;;5111626;28;19912;-71
2023/08/11 09:37:18;;;;;;;;;;;;;;;;;;5111237;28;20369;-69
2023/08/11 09:39:44;;;;;;;;;;;;;;;;;;5111220;28;19966;-72
2023/08/11 09:42:11;;;;;;;;;;;;;;;;;;5110221;28;19912;-71
2023/08/11 09:47:08;;;;;;;;;;;;;;;;;;5091045;27;19923;-71
2023/08/11 09:49:34;;;;;;;;;;;;;;;;;;5091536;28;20013;-71
2023/08/11 09:52:02;;;;;;;;;;;;;;;;;;5091599;28;19916;-71
2023/08/11 09:54:28;;;;;;;;;;;;;;;;;;5090489;28;19992;-70
2023/08/11 09:56:54;;;;;;;;;;;;;;;;;;5091249;28;19916;-71
2023/08/11 09:59:20;;;;;;;;;;;;;;;;;;5091136;28;19912;-71
2023/08/11 10:01:46;;;;;;;;;;;;;;;;;;5089649;28;19919;-71
2023/08/11 10:04:12;;;;;;;;;;;;;;;;;;5091668;28;19909;-71
2023/08/11 10:06:38;;;;;;;;;;;;;;;;;;5090010;28;20300;-72
2023/08/11 10:09:04;;;;;;;;;;;;;;;;;;5091797;28;19913;-73
2023/08/11 10:11:30;;;;;;;;;;;;;;;;;;5091198;28;19908;-72
2023/08/11 10:13:56;;;;;;;;;;;;;;;;;;5091353;28;19916;-73
2023/08/11 10:16:22;;;;;;;;;;;;;;;;;;5090399;28;19962;-73
2023/08/11 10:18:48;;;;;;;;;;;;;;;;;;5090884;28;19908;-73
2023/08/11 10:21:14;;;;;;;;;;;;;;;;;;5090685;28;19909;-72
2023/08/11 10:23:40;;;;;;;;;;;;;;;;;;5091078;28;19931;-73
2023/08/11 10:26:06;;;;;;;;;;;;;;;;;;5091649;28;19916;-72
2023/08/11 10:28:32;;;;;;;;;;;;;;;;;;5089557;28;19909;-74
2023/08/11 10:30:58;;;;;;;;;;;;;;;;;;5089473;28;19912;-74
2023/08/11 10:33:24;;;;;;;;;;;;;;;;;;5090741;28;19948;-73
2023/08/11 10:35:51;;;;;;;;;;;;;;;;;;5090133;28;19908;-74
2023/08/11 10:38:17;;;;;;;;;;;;;;;;;;5090566;28;20285;-73
2023/08/11 10:40:42;;;;;;;;;;;;;;;;;;5090494;28;19909;-73
2023/08/11 10:43:08;;;;;;;;;;;;;;;;;;5090305;28;19954;-73
2023/08/11 10:45:34;;;;;;;;;;;;;;;;;;5097998;28;19927;-73
2023/08/11 10:48:01;;;;;;;;;;;;;;;;;;5110781;28;19908;-73
2023/08/11 10:50:27;;;;;;;;;;;;;;;;;;5110237;28;19908;-72
2023/08/11 10:52:53;;;;;;;;;;;;;;;;;;5110609;28;19912;-73
2023/08/11 10:55:19;;;;;;;;;;;;;;;;;;5110544;28;19961;-73
2023/08/11 10:57:45;;;;;;;;;;;;;;;;;;5082306;28;19908;-73
2023/08/11 11:00:11;;;;;;;;;;;;;;;;;;5078731;28;19915;-73
2023/08/11 11:02:37;;;;;;;;;;;;;;;;;;5078547;28;19930;-73
2023/08/11 11:05:02;;;;;;;;;;;;;;;;;;5096399;28;19965;-73
2023/08/11 11:07:29;;;;;;;;;;;;;;;;;;5096727;28;19935;-73
2023/08/11 11:09:55;;;;;;;;;;;;;;;;;;5096336;28;19909;-73
2023/08/11 11:12:21;;;;;;;;;;;;;;;;;;5096708;28;19908;-73
2023/08/11 11:14:47;;;;;;;;;;;;;;;;;;5078491;28;19982;-73
2023/08/11 11:17:14;;;;;;;;;;;;;;;;;;5096207;28;19909;-73
2023/08/11 11:19:40;;;;;;;;;;;;;;;;;;5096563;28;19908;-73
2023/08/11 11:22:06;;;;;;;;;;;;;;;;;;5078479;28;20376;-73
2023/08/11 11:24:32;;;;;;;;;;;;;;;;;;5096054;28;20387;-73
2023/08/11 11:26:58;;;;;;;;;;;;;;;;;;5078267;28;20428;-73
2023/08/11 11:29:27;;;;;;;;;;;;;;;;;;5096370;28;19908;-71
2023/08/11 11:31:53;;;;;;;;;;;;;;;;;;5077771;28;19908;-72
2023/08/11 11:34:19;;;;;;;;;;;;;;;;;;5096676;28;19908;-73
2023/08/11 11:36:45;;;;;;;;;;;;;;;;;;5096580;28;20427;-73
2023/08/11 11:39:11;;;;;;;;;;;;;;;;;;5078188;28;19908;-73
2023/08/11 11:41:37;;;;;;;;;;;;;;;;;;5096535;28;19912;-73
2023/08/11 11:44:03;;;;;;;;;;;;;;;;;;5096367;28;19916;-73
2023/08/11 11:46:29;;;;;;;;;;;;;;;;;;5095839;28;19920;-72
2023/08/11 11:48:55;;;;;;;;;;;;;;;;;;5096268;28;19912;-73
2023/08/11 11:51:21;;;;;;;;;;;;;;;;;;5096863;28;19954;-72
2023/08/11 11:53:47;;;;;;;;;;;;;;;;;;5095612;28;19908;-73
2023/08/11 11:56:13;;;;;;;;;;;;;;;;;;5096402;28;19908;-72
2023/08/11 11:58:39;;;;;;;;;;;;;;;;;;5096181;28;19908;-73
2023/08/11 12:01:05;;;;;;;;;;;;;;;;;;5078148;28;19934;-73
2023/08/11 12:03:31;;;;;;;;;;;;;;;;;;5096207;28;19969;-73
2023/08/11 12:05:57;;;;;;;;;;;;;;;;;;5077779;28;19920;-73
2023/08/11 12:08:23;;;;;;;;;;;;;;;;;;5077027;28;20007;-72
2023/08/11 12:10:49;;;;;;;;;;;;;;;;;;5095829;28;19914;-72
2023/08/11 12:13:15;;;;;;;;;;;;;;;;;;5095583;28;19908;-72
2023/08/11 12:15:41;;;;;;;;;;;;;;;;;;5095718;28;19908;-73
2023/08/11 12:18:08;;;;;;;;;;;;;;;;;;5077729;28;19912;-72
2023/08/11 12:20:34;;;;;;;;;;;;;;;;;;5095591;28;19995;-72
2023/08/11 12:23:00;;;;;;;;;;;;;;;;;;5095653;28;20345;-72
2023/08/11 12:25:26;;;;;;;;;;;;;;;;;;5095740;28;20287;-72
2023/08/11 12:27:51;;;;;;;;;;;;;;;;;;5095285;28;19951;-72
2023/08/11 12:30:18;;;;;;;;;;;;;;;;;;5095436;28;19912;-72
2023/08/11 12:32:44;;;;;;;;;;;;;;;;;;5095452;28;19908;-72
2023/08/11 12:35:13;;;;;;;;;;;;;;;;;;5076840;28;20288;-72
2023/08/11 12:37:39;;;;;;;;;;;;;;;;;;5077623;28;19908;-73
2023/08/11 12:40:09;;;;;;;;;;;;;;;;;;5095642;28;19908;-72
2023/08/11 12:42:35;;;;;;;;;;;;;;;;;;5076473;28;19915;-72
2023/08/11 12:45:01;;;;;;;;;;;;;;;;;;5094780;28;19913;-73
2023/08/11 12:47:27;;;;;;;;;;;;;;;;;;5095205;28;19916;-73
2023/08/11 12:49:53;;;;;;;;;;;;;;;;;;5094860;28;20322;-73
2023/08/11 12:52:19;;;;;;;;;;;;;;;;;;5095270;28;20346;-73
2023/08/11 12:54:45;;;;;;;;;;;;;;;;;;5094958;28;20281;-72
2023/08/11 12:57:11;;;;;;;;;;;;;;;;;;5094973;28;19912;-73
2023/08/11 12:59:37;;;;;;;;;;;;;;;;;;5095227;28;19909;-73
2023/08/11 13:02:03;;;;;;;;;;;;;;;;;;5095217;28;19935;-73
2023/08/11 13:04:29;;;;;;;;;;;;;;;;;;5094791;28;19908;-72
2023/08/11 13:06:55;;;;;;;;;;;;;;;;;;5077046;28;19920;-74
2023/08/11 13:09:21;;;;;;;;;;;;;;;;;;5076473;28;19960;-73
2023/08/11 13:11:47;;;;;;;;;;;;;;;;;;5094986;28;19908;-73
2023/08/11 13:14:13;;;;;;;;;;;;;;;;;;5094824;28;20412;-73
2023/08/11 13:16:38;;;;;;;;;;;;;;;;;;5094674;28;20016;-71
2023/08/11 13:19:05;;;;;;;;;;;;;;;;;;5094791;28;19908;-72
2023/08/11 13:21:31;;;;;;;;;;;;;;;;;;5094945;28;19908;-73
2023/08/11 13:23:57;;;;;;;;;;;;;;;;;;5094156;28;20414;-73
2023/08/11 13:26:23;;;;;;;;;;;;;;;;;;5075947;28;20437;-73
2023/08/11 13:28:48;;;;;;;;;;;;;;;;;;5094143;28;19914;-73
2023/08/11 13:31:14;;;;;;;;;;;;;;;;;;5093886;28;20368;-73
2023/08/11 13:33:40;;;;;;;;;;;;;;;;;;5094015;28;19908;-73
2023/08/11 13:36:08;;;;;;;;;;;;;;;;;;5075956;28;20417;-73
2023/08/11 13:38:34;;;;;;;;;;;;;;;;;;5075480;28;20292;-72
2023/08/11 13:41:00;;;;;;;;;;;;;;;;;;5093963;28;19908;-72
2023/08/11 13:43:26;;;;;;;;;;;;;;;;;;5094008;28;19961;-72
2023/08/11 13:45:53;;;;;;;;;;;;;;;;;;5093229;28;20013;-72
2023/08/11 13:48:19;;;;;;;;;;;;;;;;;;5093919;28;20030;-72
2023/08/11 13:50:45;;;;;;;;;;;;;;;;;;5093850;28;20367;-72
2023/08/11 13:53:11;;;;;;;;;;;;;;;;;;5093382;28;19951;-72
2023/08/11 13:55:37;;;;;;;;;;;;;;;;;;5094016;28;20280;-74
2023/08/11 13:58:03;;;;;;;;;;;;;;;;;;5075646;28;19908;-73
2023/08/11 14:00:29;;;;;;;;;;;;;;;;;;5093472;28;19912;-73
2023/08/11 14:02:56;;;;;;;;;;;;;;;;;;5093588;28;20372;-73
2023/08/11 14:05:24;;;;;;;;;;;;;;;;;;5093643;28;19915;-72
2023/08/11 14:07:50;;;;;;;;;;;;;;;;;;5093302;28;19916;-73
2023/08/11 14:10:16;;;;;;;;;;;;;;;;;;5093631;28;20239;-72
2023/08/11 14:12:42;;;;;;;;;;;;;;;;;;5093572;28;20288;-72
2023/08/11 14:15:08;;;;;;;;;;;;;;;;;;5093596;28;19912;-73
2023/08/11 14:17:34;;;;;;;;;;;;;;;;;;5093797;28;19912;-72
2023/08/11 14:20:00;;;;;;;;;;;;;;;;;;5093140;28;19908;-72
2023/08/11 14:22:25;;;;;;;;;;;;;;;;;;5093533;28;19947;-72
2023/08/11 14:24:51;;;;;;;;;;;;;;;;;;5093447;28;19916;-72
2023/08/11 14:27:17;;;;;;;;;;;;;;;;;;5093129;28;19923;-72
2023/08/11 14:29:43;;;;;;;;;;;;;;;;;;5093534;28;19909;-73
2023/08/11 14:32:09;;;;;;;;;;;;;;;;;;5094398;28;19961;-72
2023/08/11 14:34:35;;;;;;;;;;;;;;;;;;5096966;28;19912;-72
2023/08/11 14:37:01;;;;;;;;;;;;;;;;;;5097172;28;20319;-73
2023/08/11 14:39:27;;;;;;;;;;;;;;;;;;5079097;28;20024;-73
2023/08/11 14:41:53;;;;;;;;;;;;;;;;;;5096534;28;19931;-73
2023/08/11 14:44:19;;;;;;;;;;;;;;;;;;5097184;28;19933;-72
2023/08/11 14:46:45;;;;;;;;;;;;;;;;;;5096824;28;20011;-72
2023/08/11 14:49:11;;;;;;;;;;;;;;;;;;5096576;28;19915;-72
2023/08/11 14:51:37;;;;;;;;;;;;;;;;;;5097048;28;20011;-72
2023/08/11 14:54:03;;;;;;;;;;;;;;;;;;5078730;28;20298;-72
2023/08/11 14:56:29;;;;;;;;;;;;;;;;;;5096383;28;19909;-72
2023/08/11 14:58:55;;;;;;;;;;;;;;;;;;5078658;28;19916;-73
2023/08/11 15:01:21;;;;;;;;;;;;;;;;;;5096719;28;19908;-73
2023/08/11 15:03:47;;;;;;;;;;;;;;;;;;5078166;28;19919;-73
2023/08/11 15:06:13;;;;;;;;;;;;;;;;;;5096792;28;19923;-73
2023/08/11 15:08:39;;;;;;;;;;;;;;;;;;5097284;28;19908;-72
2023/08/11 15:11:05;;;;;;;;;;;;;;;;;;5096228;28;19908;-73
2023/08/11 15:13:31;;;;;;;;;;;;;;;;;;5096836;28;20011;-73
2023/08/11 15:15:57;;;;;;;;;;;;;;;;;;5096027;28;19909;-73
2023/08/11 15:18:27;;;;;;;;;;;;;;;;;;5096905;28;19962;-73
2023/08/11 15:20:53;;;;;;;;;;;;;;;;;;5097071;28;19946;-73
2023/08/11 15:23:19;;;;;;;;;;;;;;;;;;5096048;28;19962;-73
2023/08/11 15:25:44;;;;;;;;;;;;;;;;;;5096436;28;19919;-72
2023/08/11 15:28:10;;;;;;;;;;;;;;;;;;5096514;28;19908;-73
2023/08/11 15:30:36;;;;;;;;;;;;;;;;;;5095978;28;19909;-73
2023/08/11 15:33:02;;;;;;;;;;;;;;;;;;5096408;28;19972;-73
2023/08/11 15:35:28;;;;;;;;;;;;;;;;;;5096167;28;19960;-72
2023/08/11 15:37:54;;;;;;;;;;;;;;;;;;5095809;28;20343;-73
2023/08/11 15:40:20;;;;;;;;;;;;;;;;;;5096257;28;20365;-73
2023/08/11 15:42:46;;;;;;;;;;;;;;;;;;5095981;28;19916;-73
2023/08/11 15:45:12;;;;;;;;;;;;;;;;;;5095391;28;20283;-72
2023/08/11 15:47:38;;;;;;;;;;;;;;;;;;5095911;28;20023;-73
2023/08/11 15:50:04;;;;;;;;;;;;;;;;;;5095853;28;20322;-73
2023/08/11 15:52:30;;;;;;;;;;;;;;;;;;5095556;28;20286;-72
2023/08/11 15:54:56;;;;;;;;;;;;;;;;;;5096148;28;20360;-72
2023/08/11 15:57:22;;;;;;;;;;;;;;;;;;5095689;28;20265;-72
2023/08/11 15:59:48;;;;;;;;;;;;;;;;;;5095357;28;19912;-72
2023/08/11 16:02:14;;;;;;;;;;;;;;;;;;5095917;28;20425;-72
2023/08/11 16:04:40;;;;;;;;;;;;;;;;;;5095630;28;19954;-72
2023/08/11 16:07:06;;;;;;;;;;;;;;;;;;5095149;28;19916;-71
2023/08/11 16:09:32;;;;;;;;;;;;;;;;;;5095530;28;19915;-72
2023/08/11 16:11:58;;;;;;;;;;;;;;;;;;5095475;28;19912;-71
2023/08/11 16:14:26;;;;;;;;;;;;;;;;;;5094954;28;19912;-72
2023/08/11 16:16:53;;;;;;;;;;;;;;;;;;5095341;28;19914;-72
2023/08/11 16:19:19;;;;;;;;;;;;;;;;;;5094902;28;19908;-72
2023/08/11 16:21:45;;;;;;;;;;;;;;;;;;5095304;28;19909;-71
2023/08/11 16:24:11;;;;;;;;;;;;;;;;;;5095188;28;19915;-73
2023/08/11 16:26:37;;;;;;;;;;;;;;;;;;5094758;28;20014;-72
2023/08/11 16:29:03;;;;;;;;;;;;;;;;;;5095198;28;20000;-73
2023/08/11 16:31:29;;;;;;;;;;;;;;;;;;5099483;28;19939;-73
2023/08/11 16:33:55;;;;;;;;;;;;;;;;;;5094608;28;19930;-73
2023/08/11 16:36:21;;;;;;;;;;;;;;;;;;5095001;28;19908;-72
2023/08/11 16:38:47;;;;;;;;;;;;;;;;;;5094878;28;20299;-73
2023/08/11 16:41:13;;;;;;;;;;;;;;;;;;5095665;28;19908;-73
2023/08/11 16:43:39;;;;;;;;;;;;;;;;;;5097567;28;19908;-72
2023/08/11 16:46:05;;;;;;;;;;;;;;;;;;5073766;28;19926;-72
2023/08/11 16:48:31;;;;;;;;;;;;;;;;;;5075123;28;19983;-71
2023/08/11 16:50:57;;;;;;;;;;;;;;;;;;5075257;28;19908;-72
2023/08/11 16:53:23;;;;;;;;;;;;;;;;;;5076252;28;20373;-72
2023/08/11 16:55:49;;;;;;;;;;;;;;;;;;5074887;28;20394;-72
2023/08/11 16:58:15;;;;;;;;;;;;;;;;;;5075516;28;19908;-72
2023/08/11 17:00:42;;;;;;;;;;;;;;;;;;5075047;28;19962;-70
2023/08/11 17:03:08;;;;;;;;;;;;;;;;;;5074860;28;20326;-73
2023/08/11 17:05:34;;;;;;;;;;;;;;;;;;5074148;28;20019;-70
2023/08/11 17:09:10;;;;;;;;;;;;;;;;;;5071279;28;19919;-72
2023/08/11 17:11:35;;;;;;;;;;;;;;;;;;5069946;28;20007;-72
2023/08/11 17:14:02;;;;;;;;;;;;;;;;;;5071222;28;19915;-71
2023/08/11 17:16:28;;;;;;;;;;;;;;;;;;5070679;28;19909;-72
2023/08/11 17:22:15;;;;;;;;;;;;;;;;;;5113133;27;19939;-71
2023/08/11 17:24:41;;;;;;;;;;;;;;;;;;5111896;28;20428;-72
2023/08/11 17:27:46;;;;;;;;;;;;;;;;;;5112648;27;20339;-73
2023/08/11 17:30:13;;;;;;;;;;;;;;;;;;5093335;28;19912;-72
2023/08/11 17:32:38;;;;;;;;;;;;;;;;;;5111822;28;19908;-72
2023/08/11 17:35:05;;;;;;;;;;;;;;;;;;5111631;28;20261;-72
2023/08/11 17:37:51;;;;;;;;;;;;;;;;;;5111807;27;19918;-71
2023/08/11 17:40:17;;;;;;;;;;;;;;;;;;5112771;28;19912;-72
2023/08/11 17:42:43;;;;;;;;;;;;;;;;;;5116184;28;19915;-72
2023/08/11 17:45:20;;;;;;;;;;;;;;;;;;5152778;27;20006;-72
2023/08/11 17:47:46;;;;;;;;;;;;;;;;;;5152929;27;19993;-72
2023/08/11 17:50:24;;;;;;;;;;;;;;;;;;5091519;27;19922;-71
2023/08/11 17:52:49;;;;;;;;;;;;;;;;;;5091120;28;20351;-72
2023/08/11 17:55:15;;;;;;;;;;;;;;;;;;5091292;28;19909;-72
2023/08/11 17:57:41;;;;;;;;;;;;;;;;;;5089505;28;19951;-71
2023/08/11 18:00:08;;;;;;;;;;;;;;;;;;5091666;28;19943;-71
2023/08/11 18:02:34;;;;;;;;;;;;;;;;;;5091193;28;19964;-71
2023/08/11 18:05:50;;;;;;;;;;;;;;;;;;5112060;27;19916;-71
2023/08/11 18:08:16;;;;;;;;;;;;;;;;;;5111688;28;20007;-71
2023/08/11 18:10:42;;;;;;;;;;;;;;;;;;5111724;28;20295;-72
2023/08/11 18:13:08;;;;;;;;;;;;;;;;;;5111485;28;20272;-73
2023/08/11 18:15:34;;;;;;;;;;;;;;;;;;5111609;28;20329;-72
2023/08/11 18:18:00;;;;;;;;;;;;;;;;;;5111595;28;19912;-73
2023/08/11 18:20:26;;;;;;;;;;;;;;;;;;5111206;28;19961;-72
2023/08/11 18:25:48;;;;;;;;;;;;;;;;;;5111779;27;19922;-73
2023/08/11 18:30:58;;;;;;;;;;;;;;;;;;5111991;27;19912;-72
2023/08/11 18:33:45;;;;;;;;;;;;;;;;;;5111732;27;19922;-71
2023/08/11 18:36:10;;;;;;;;;;;;;;;;;;5110822;28;20354;-72
2023/08/11 18:38:36;;;;;;;;;;;;;;;;;;5111859;28;19961;-73
2023/08/11 18:41:02;;;;;;;;;;;;;;;;;;5111228;28;19908;-72
2023/08/11 18:44:30;;;;;;;;;;;;;;;;;;5153232;27;19916;-72
2023/08/11 18:47:26;;;;;;;;;;;;;;;;;;5111770;27;19916;-73
2023/08/11 18:49:53;;;;;;;;;;;;;;;;;;5111861;28;19958;-72
2023/08/11 18:52:19;;;;;;;;;;;;;;;;;;5112198;28;20318;-72
2023/08/11 18:54:45;;;;;;;;;;;;;;;;;;5111402;28;19911;-72
2023/08/11 18:57:12;;;;;;;;;;;;;;;;;;5111602;28;19909;-72
2023/08/11 18:59:38;;;;;;;;;;;;;;;;;;5111620;28;19955;-71
2023/08/11 19:02:04;;;;;;;;;;;;;;;;;;5111308;28;19908;-73
2023/08/11 19:04:30;;;;;;;;;;;;;;;;;;5110560;28;20013;-72
2023/08/11 19:09:27;;;;;;;;;;;;;;;;;;5091396;28;19916;-71
2023/08/11 19:11:53;;;;;;;;;;;;;;;;;;5090728;28;20436;-71
2023/08/11 19:16:52;;;;;;;;;;;;;;;;;;5091931;27;19923;-72
2023/08/11 19:19:17;;;;;;;;;;;;;;;;;;5090488;28;20002;-72
2023/08/11 19:25:05;;;;;;;;;;;;;;;;;;5071564;28;20296;-71
2023/08/11 19:29:26;;;;;;;;;;;;;;;;;;5152676;27;19920;-71
2023/08/11 19:31:52;;;;;;;;;;;;;;;;;;5152958;27;19911;-71
2023/08/11 19:36:41;;;;;;;;;;;;;;;;;;5091902;28;19916;-71
2023/08/11 19:44:33;;;;;;;;;;;;;;;;;;5111713;27;20388;-72
2023/08/11 19:46:59;;;;;;;;;;;;;;;;;;5111817;28;19912;-72
2023/08/11 19:51:22;;;;;;;;;;;;;;;;;;5112006;27;19916;-73
2023/08/11 19:53:48;;;;;;;;;;;;;;;;;;5111808;28;19938;-71